createdAt,value
2022-12-03T00:00:59.671Z,99008.97
2022-12-03T00:03:30.710Z,99005.66
2022-12-03T00:05:59.044Z,99005.88
2022-12-03T00:08:27.499Z,99010.25
2022-12-03T00:10:55.769Z,99009.81
2022-12-03T00:13:24.328Z,99002.97
2022-12-03T00:15:52.605Z,99010.88
2022-12-03T00:18:20.999Z,99017.50
2022-12-03T00:20:50.650Z,99008.31
2022-12-03T00:23:19.088Z,99006.28
2022-12-03T00:25:47.458Z,99010.03
2022-12-03T00:28:15.789Z,98999.69
2022-12-03T00:30:44.009Z,99008.19
2022-12-03T00:33:12.382Z,99003.19
2022-12-03T00:35:40.540Z,98992.19
2022-12-03T00:38:10.458Z,98996.91
2022-12-03T00:40:38.801Z,98992.81
2022-12-03T00:43:07.181Z,98992.81
2022-12-03T00:45:35.284Z,98979.97
2022-12-03T00:48:03.703Z,98986.38
2022-12-03T00:50:31.887Z,98986.81
2022-12-03T00:53:00.288Z,98986.38
2022-12-03T00:55:29.735Z,98984.09
2022-12-03T00:57:58.099Z,98980.97
2022-12-03T01:00:26.442Z,98989.94
2022-12-03T01:02:55.042Z,98992.81
2022-12-03T01:05:23.459Z,98995.09
2022-12-03T01:07:52.240Z,98990.75
2022-12-03T01:10:20.618Z,98989.28
2022-12-03T01:12:50.540Z,98999.59
2022-12-03T01:15:19.162Z,98994.84
2022-12-03T01:17:47.757Z,98990.28
2022-12-03T01:20:15.927Z,98977.38
2022-12-03T01:22:44.383Z,98988.00
2022-12-03T01:25:12.443Z,98976.41
2022-12-03T01:27:40.909Z,98977.47
2022-12-03T01:30:13.688Z,98977.00
2022-12-03T01:32:41.080Z,98973.09
2022-12-03T01:35:09.788Z,98968.63
2022-12-03T01:37:38.286Z,98969.06
2022-12-03T01:40:08.509Z,98965.28
2022-12-03T01:42:39.577Z,98972.13
2022-12-03T01:45:13.047Z,98979.50
2022-12-03T01:47:41.559Z,98983.81
2022-12-03T01:50:16.364Z,98995.94
2022-12-03T01:52:45.617Z,98991.22
2022-12-03T01:55:15.686Z,98982.97
2022-12-03T01:57:46.752Z,98977.97
2022-12-03T02:00:18.297Z,98971.97
2022-12-03T02:02:48.296Z,98959.91
2022-12-03T02:05:19.352Z,98969.94
2022-12-03T02:07:47.671Z,98974.66
2022-12-03T02:10:17.824Z,98980.31
2022-12-03T02:12:49.327Z,98983.34
2022-12-03T02:15:18.791Z,98983.47
2022-12-03T02:17:47.188Z,98979.09
2022-12-03T02:20:15.512Z,98982.97
2022-12-03T02:22:47.912Z,98991.50
2022-12-03T02:25:19.799Z,98989.53
2022-12-03T02:27:49.432Z,98985.81
2022-12-03T02:30:19.522Z,98997.03
2022-12-03T02:32:48.628Z,98997.19
2022-12-03T02:35:18.724Z,98988.78
2022-12-03T02:37:48.069Z,98993.66
2022-12-03T02:40:21.030Z,98988.69
2022-12-03T02:42:48.937Z,98980.91
2022-12-03T02:45:20.794Z,98974.84
2022-12-03T02:47:52.292Z,98972.44
2022-12-03T02:50:23.527Z,98975.22
2022-12-03T02:52:53.349Z,98977.41
2022-12-03T02:55:23.365Z,98977.75
2022-12-03T02:57:52.276Z,98979.44
2022-12-03T03:00:23.119Z,98975.91
2022-12-03T03:02:51.796Z,98972.59
2022-12-03T03:05:22.248Z,98975.31
2022-12-03T03:07:51.939Z,98969.06
2022-12-03T03:10:24.237Z,98977.81
2022-12-03T03:12:54.406Z,98965.91
2022-12-03T03:15:23.459Z,98975.00
2022-12-03T03:17:52.031Z,98978.19
2022-12-03T03:20:20.527Z,98977.72
2022-12-03T03:22:49.009Z,98982.97
2022-12-03T03:25:19.076Z,98973.66
2022-12-03T03:27:48.902Z,98972.31
2022-12-03T03:30:17.503Z,98967.06
2022-12-03T03:32:45.880Z,98979.72
2022-12-03T03:35:14.952Z,98972.84
2022-12-03T03:37:43.369Z,98966.78
2022-12-03T03:40:12.329Z,98968.72
2022-12-03T03:42:40.776Z,98965.22
2022-12-03T03:45:11.127Z,98968.28
2022-12-03T03:47:39.639Z,98968.31
2022-12-03T03:50:09.829Z,98970.53
2022-12-03T03:52:39.307Z,98980.25
2022-12-03T03:55:08.541Z,98976.53
2022-12-03T03:57:37.235Z,98978.47
2022-12-03T04:00:06.922Z,98969.09
2022-12-03T04:02:38.406Z,98971.13
2022-12-03T04:05:07.417Z,98970.94
2022-12-03T04:07:35.943Z,98970.59
2022-12-03T04:10:24.810Z,98974.53
2022-12-03T04:12:58.240Z,98980.50
2022-12-03T04:15:26.763Z,98980.44
2022-12-03T04:18:14.739Z,98983.03
2022-12-03T04:20:43.331Z,98979.94
2022-12-03T04:23:10.855Z,98980.97
2022-12-03T04:25:56.623Z,98982.75
2022-12-03T04:28:42.295Z,98977.72
2022-12-03T04:31:24.602Z,98978.31
2022-12-03T04:34:12.118Z,98970.94
2022-12-03T04:36:40.535Z,98974.00
2022-12-03T04:39:09.144Z,98972.91
2022-12-03T04:41:37.423Z,98974.19
2022-12-03T04:44:23.231Z,98973.34
2022-12-03T04:46:51.458Z,98975.44
2022-12-03T04:49:21.210Z,98978.16
2022-12-03T04:51:49.395Z,98973.88
2022-12-03T04:54:17.740Z,98971.25
2022-12-03T04:56:45.916Z,98967.47
2022-12-03T04:59:16.461Z,98960.66
2022-12-03T05:01:46.287Z,98966.25
2022-12-03T05:04:15.516Z,98962.84
2022-12-03T05:06:45.303Z,98955.91
2022-12-03T05:09:13.911Z,98951.31
2022-12-03T05:11:42.805Z,98953.22
2022-12-03T05:14:12.017Z,98968.44
2022-12-03T05:16:40.442Z,98962.03
2022-12-03T05:19:09.960Z,98950.13
2022-12-03T05:21:38.033Z,98956.50
2022-12-03T05:24:08.384Z,98965.13
2022-12-03T05:26:36.577Z,98954.84
2022-12-03T05:29:05.211Z,98963.03
2022-12-03T05:31:33.357Z,98959.28
2022-12-03T05:34:01.764Z,98951.09
2022-12-03T05:36:29.861Z,98950.06
2022-12-03T05:38:58.292Z,98954.22
2022-12-03T05:41:44.986Z,98954.94
2022-12-03T05:44:16.235Z,98952.84
2022-12-03T05:46:48.493Z,98950.56
2022-12-03T05:49:17.096Z,98963.00
2022-12-03T05:51:45.156Z,98960.56
2022-12-03T05:54:13.568Z,98959.97
2022-12-03T05:56:43.153Z,98958.84
2022-12-03T05:59:11.519Z,98960.16
2022-12-03T06:01:39.695Z,98964.69
2022-12-03T06:04:08.156Z,98955.03
2022-12-03T06:06:36.352Z,98964.78
2022-12-03T06:09:05.170Z,98966.06
2022-12-03T06:11:34.999Z,98968.09
2022-12-03T06:14:04.981Z,98966.34
2022-12-03T06:16:33.312Z,98956.50
2022-12-03T06:19:01.688Z,98949.63
2022-12-03T06:21:29.911Z,98966.44
2022-12-03T06:23:58.262Z,98965.59
2022-12-03T06:26:26.545Z,98968.13
2022-12-03T06:28:54.973Z,98965.63
2022-12-03T06:31:24.764Z,98974.94
2022-12-03T06:33:53.277Z,98983.88
2022-12-03T06:36:23.292Z,98979.09
2022-12-03T06:38:51.962Z,98983.84
2022-12-03T06:41:20.053Z,98990.66
2022-12-03T06:43:48.526Z,98984.19
2022-12-03T06:46:16.841Z,98985.25
2022-12-03T06:48:46.655Z,98985.34
2022-12-03T06:51:14.674Z,98987.97
2022-12-03T06:53:43.176Z,99004.78
2022-12-03T06:56:11.351Z,98998.34
2022-12-03T06:58:39.953Z,99001.59
2022-12-03T07:01:08.082Z,99007.22
2022-12-03T07:03:36.501Z,99002.44
2022-12-03T07:06:06.273Z,99004.06
2022-12-03T07:08:34.636Z,99001.03
2022-12-03T07:11:02.851Z,98995.44
2022-12-03T07:13:31.176Z,98998.75
2022-12-03T07:15:59.591Z,98993.75
2022-12-03T07:18:27.989Z,98994.97
2022-12-03T07:20:56.178Z,99002.00
2022-12-03T07:23:25.873Z,98994.06
2022-12-03T07:25:53.972Z,98996.28
2022-12-03T07:28:22.313Z,99005.06
2022-12-03T07:30:50.460Z,99002.56
2022-12-03T07:33:18.869Z,99001.78
2022-12-03T07:35:46.892Z,99003.69
2022-12-03T07:38:15.378Z,99006.63
2022-12-03T07:40:45.212Z,99005.75
2022-12-03T07:43:13.617Z,99001.47
2022-12-03T07:45:41.866Z,99009.56
2022-12-03T07:48:10.414Z,99006.31
2022-12-03T07:50:38.539Z,99002.38
2022-12-03T07:53:07.014Z,99000.72
2022-12-03T07:55:35.180Z,98999.47
2022-12-03T07:58:04.902Z,99000.31
2022-12-03T08:00:32.998Z,99000.88
2022-12-03T08:03:01.385Z,98999.25
2022-12-03T08:05:29.929Z,98988.28
2022-12-03T08:07:58.405Z,99000.91
2022-12-03T08:10:27.188Z,98996.34
2022-12-03T08:12:57.630Z,98998.59
2022-12-03T08:15:32.366Z,98996.44
2022-12-03T08:18:14.179Z,98991.78
2022-12-03T08:20:43.936Z,98989.94
2022-12-03T08:23:14.884Z,98986.03
2022-12-03T08:25:43.738Z,98986.25
2022-12-03T08:28:16.734Z,98991.75
2022-12-03T08:30:48.819Z,98991.50
2022-12-03T08:33:22.284Z,98987.69
2022-12-03T08:35:52.075Z,98982.78
2022-12-03T08:38:23.041Z,98991.00
2022-12-03T08:40:52.955Z,99000.13
2022-12-03T08:43:22.994Z,98997.50
2022-12-03T08:45:52.851Z,99001.44
2022-12-03T08:48:28.189Z,98999.19
2022-12-03T08:50:57.849Z,98996.31
2022-12-03T08:53:30.109Z,99006.59
2022-12-03T08:56:00.394Z,98996.91
2022-12-03T08:58:38.710Z,99007.53
2022-12-03T09:01:30.390Z,99002.88
2022-12-03T09:04:06.950Z,99009.63
2022-12-03T09:06:35.032Z,99006.06
2022-12-03T09:09:06.744Z,99014.56
2022-12-03T09:11:35.226Z,99010.63
2022-12-03T09:14:03.673Z,99008.50
2022-12-03T09:16:33.726Z,99014.25
2022-12-03T09:19:02.138Z,99011.63
2022-12-03T09:21:30.225Z,99010.50
2022-12-03T09:23:58.645Z,99008.66
2022-12-03T09:26:27.260Z,99012.13
2022-12-03T09:28:55.698Z,99007.81
2022-12-03T09:31:24.118Z,99007.03
2022-12-03T09:33:53.795Z,99007.94
2022-12-03T09:36:22.189Z,99010.34
2022-12-03T09:38:50.657Z,98999.91
2022-12-03T09:41:18.833Z,99004.44
2022-12-03T09:44:03.969Z,99014.03
2022-12-03T09:46:33.116Z,99011.31
2022-12-03T09:49:03.807Z,99013.47
2022-12-03T09:51:34.385Z,99006.94
2022-12-03T09:54:03.189Z,99007.84
2022-12-03T09:56:31.357Z,98999.94
2022-12-03T09:58:59.710Z,99007.38
2022-12-03T10:01:30.286Z,98998.22
2022-12-03T10:03:59.566Z,98996.72
2022-12-03T10:06:30.505Z,99000.88
2022-12-03T10:09:00.147Z,99003.28
2022-12-03T10:11:28.772Z,98989.25
2022-12-03T10:13:58.171Z,98987.00
2022-12-03T10:16:26.587Z,98977.34
2022-12-03T10:18:57.052Z,98982.19
2022-12-03T10:21:31.314Z,98979.47
2022-12-03T10:24:20.806Z,98984.81
2022-12-03T10:26:52.029Z,98976.88
2022-12-03T10:29:22.699Z,98995.81
2022-12-03T10:31:59.023Z,98987.19
2022-12-03T10:34:31.570Z,98976.06
2022-12-03T10:37:11.595Z,98972.75
2022-12-03T10:39:58.979Z,98979.78
2022-12-03T10:42:28.181Z,98979.31
2022-12-03T10:45:13.933Z,98980.03
2022-12-03T10:47:42.347Z,98976.84
2022-12-03T10:50:18.295Z,98978.28
2022-12-03T10:52:46.941Z,98973.63
2022-12-03T10:55:17.490Z,98970.53
2022-12-03T10:57:46.402Z,98972.34
2022-12-03T11:00:17.673Z,98968.13
2022-12-03T11:02:46.782Z,98962.81
2022-12-03T11:05:27.535Z,98962.09
2022-12-03T11:07:55.821Z,98962.38
2022-12-03T11:10:25.979Z,98966.34
2022-12-03T11:13:28.760Z,98960.56
2022-12-03T11:15:58.168Z,98956.69
2022-12-03T11:18:58.902Z,98958.56
2022-12-03T11:21:27.518Z,98961.97
2022-12-03T11:24:20.748Z,98959.69
2022-12-03T11:27:19.036Z,98962.25
2022-12-03T11:29:54.990Z,98957.53
2022-12-03T11:33:00.048Z,98956.53
2022-12-03T11:35:29.140Z,98950.66
2022-12-03T11:38:35.998Z,98949.31
2022-12-03T11:41:11.505Z,98952.31
2022-12-03T11:44:01.524Z,98940.66
2022-12-03T11:46:31.165Z,98940.19
2022-12-03T11:49:00.600Z,98944.31
2022-12-03T11:51:29.870Z,98929.63
2022-12-03T11:54:00.153Z,98936.13
2022-12-03T11:56:29.518Z,98937.50
2022-12-03T11:59:01.493Z,98930.53
2022-12-03T12:01:38.828Z,98931.06
2022-12-03T12:04:08.166Z,98932.66
2022-12-03T12:06:42.665Z,98936.44
2022-12-03T12:09:11.319Z,98936.38
2022-12-03T12:11:41.555Z,98930.81
2022-12-03T12:14:12.806Z,98931.88
2022-12-03T12:16:51.474Z,98925.84
2022-12-03T12:19:34.287Z,98930.16
2022-12-03T12:22:17.746Z,98931.00
2022-12-03T12:24:51.634Z,98928.06
2022-12-03T12:27:21.935Z,98931.47
2022-12-03T12:29:56.605Z,98935.03
2022-12-03T12:32:27.568Z,98927.22
2022-12-03T12:34:58.447Z,98921.28
2022-12-03T12:37:33.009Z,98920.00
2022-12-03T12:40:02.783Z,98916.91
2022-12-03T12:42:35.699Z,98913.09
2022-12-03T12:45:15.934Z,98914.31
2022-12-03T12:47:50.980Z,98913.72
2022-12-03T12:50:20.312Z,98908.56
2022-12-03T12:52:51.280Z,98906.44
2022-12-03T12:55:20.132Z,98906.56
2022-12-03T12:57:48.273Z,98907.91
2022-12-03T13:00:23.677Z,98907.03
2022-12-03T13:02:53.323Z,98903.81
2022-12-03T13:05:22.082Z,98903.34
2022-12-03T13:07:50.554Z,98913.31
2022-12-03T13:10:32.735Z,98919.94
2022-12-03T13:13:02.570Z,98921.78
2022-12-03T13:15:40.332Z,98921.19
2022-12-03T13:18:23.222Z,98907.50
2022-12-03T13:20:51.655Z,98913.56
2022-12-03T13:23:35.181Z,98916.44
2022-12-03T13:26:19.385Z,98914.59
2022-12-03T13:28:55.244Z,98925.19
2022-12-03T13:31:27.527Z,98918.78
2022-12-03T13:33:56.794Z,98921.72
2022-12-03T13:36:31.644Z,98917.00
2022-12-03T13:38:59.782Z,98917.97
2022-12-03T13:41:46.971Z,98916.97
2022-12-03T13:44:17.735Z,98921.38
2022-12-03T13:46:48.503Z,98917.53
2022-12-03T13:49:20.299Z,98924.63
2022-12-03T13:51:49.145Z,98929.69
2022-12-03T13:54:21.675Z,98922.03
2022-12-03T13:56:50.760Z,98914.16
2022-12-03T13:59:24.421Z,98920.13
2022-12-03T14:01:54.523Z,98911.63
2022-12-03T14:04:22.658Z,98906.13
2022-12-03T14:06:51.031Z,98909.06
2022-12-03T14:09:19.195Z,98904.16
2022-12-03T14:12:07.460Z,98903.41
2022-12-03T14:14:35.488Z,98903.06
2022-12-03T14:17:05.678Z,98892.84
2022-12-03T14:19:33.792Z,98898.97
2022-12-03T14:22:02.669Z,98886.59
2022-12-03T14:24:30.674Z,98897.13
2022-12-03T14:26:59.052Z,98896.34
2022-12-03T14:29:27.320Z,98902.03
2022-12-03T14:31:56.006Z,98896.88
2022-12-03T14:34:25.624Z,98899.97
2022-12-03T14:36:54.085Z,98909.22
2022-12-03T14:39:22.451Z,98906.13
2022-12-03T14:42:08.447Z,98911.16
2022-12-03T14:44:36.649Z,98915.00
2022-12-03T14:47:05.287Z,98908.31
2022-12-03T14:49:35.189Z,98915.94
2022-12-03T14:52:03.742Z,98913.56
2022-12-03T14:54:33.147Z,98923.16
2022-12-03T14:57:01.616Z,98914.75
2022-12-03T14:59:29.886Z,98919.56
2022-12-03T15:02:00.980Z,98911.19
2022-12-03T15:04:29.311Z,98919.56
2022-12-03T15:06:59.013Z,98909.25
2022-12-03T15:09:27.346Z,98921.81
2022-12-03T15:11:55.693Z,98926.91
2022-12-03T15:14:23.853Z,98912.97
2022-12-03T15:16:52.315Z,98917.78
2022-12-03T15:19:20.443Z,98914.13
2022-12-03T15:21:49.020Z,98918.56
2022-12-03T15:24:18.469Z,98922.72
2022-12-03T15:26:46.944Z,98924.94
2022-12-03T15:29:15.014Z,98923.72
2022-12-03T15:31:43.457Z,98925.59
2022-12-03T15:34:11.522Z,98930.25
2022-12-03T15:36:40.105Z,98921.88
2022-12-03T15:39:08.132Z,98924.19
2022-12-03T15:41:37.926Z,98928.13
2022-12-03T15:44:06.120Z,98919.69
2022-12-03T15:46:34.597Z,98923.66
2022-12-03T15:49:02.665Z,98916.94
2022-12-03T15:51:31.048Z,98917.66
2022-12-03T15:53:59.183Z,98920.50
2022-12-03T15:56:27.586Z,98928.34
2022-12-03T15:58:57.183Z,98925.38
2022-12-03T16:01:25.895Z,98924.88
2022-12-03T16:03:54.005Z,98924.78
2022-12-03T16:06:22.454Z,98915.78
2022-12-03T16:08:50.500Z,98923.28
2022-12-03T16:11:18.799Z,98925.41
2022-12-03T16:13:46.903Z,98926.00
2022-12-03T16:16:16.697Z,98923.72
2022-12-03T16:18:44.887Z,98923.69
2022-12-03T16:21:13.184Z,98914.00
2022-12-03T16:23:41.772Z,98922.84
2022-12-03T16:26:10.117Z,98915.66
2022-12-03T16:28:38.171Z,98922.06
2022-12-03T16:31:06.851Z,98911.06
2022-12-03T16:33:36.475Z,98913.81
2022-12-03T16:36:05.131Z,98917.50
2022-12-03T16:38:33.792Z,98922.50
2022-12-03T16:41:02.395Z,98910.44
2022-12-03T16:43:30.565Z,98917.28
2022-12-03T16:46:12.924Z,98920.22
2022-12-03T16:48:42.401Z,98908.78
2022-12-03T16:51:10.907Z,98910.44
2022-12-03T16:53:39.551Z,98903.13
2022-12-03T16:56:08.024Z,98906.13
2022-12-03T16:58:36.176Z,98905.84
2022-12-03T17:01:04.656Z,98907.25
2022-12-03T17:03:34.200Z,98919.13
2022-12-03T17:06:04.671Z,98908.38
2022-12-03T17:08:32.935Z,98907.63
2022-12-03T17:11:01.334Z,98902.91
2022-12-03T17:13:29.442Z,98903.59
2022-12-03T17:15:57.874Z,98915.19
2022-12-03T17:18:27.117Z,98904.19
2022-12-03T17:20:55.463Z,98896.72
2022-12-03T17:23:25.000Z,98889.28
2022-12-03T17:25:53.347Z,98887.16
2022-12-03T17:28:21.406Z,98883.06
2022-12-03T17:30:49.941Z,98876.81
2022-12-03T17:33:18.116Z,98888.19
2022-12-03T17:35:46.848Z,98881.13
2022-12-03T17:38:15.022Z,98882.28
2022-12-03T17:40:44.792Z,98885.34
2022-12-03T17:43:12.868Z,98886.28
2022-12-03T17:45:41.871Z,98881.72
2022-12-03T17:48:10.180Z,98880.81
2022-12-03T17:50:38.814Z,98889.03
2022-12-03T17:53:10.337Z,98892.13
2022-12-03T17:55:44.535Z,98890.22
2022-12-03T17:58:14.947Z,98885.25
2022-12-03T18:00:43.719Z,98896.84
2022-12-03T18:03:11.853Z,98875.81
2022-12-03T18:05:40.265Z,98873.00
2022-12-03T18:08:08.489Z,98869.88
2022-12-03T18:10:36.937Z,98874.50
2022-12-03T18:13:05.081Z,98876.53
2022-12-03T18:15:34.852Z,98867.16
2022-12-03T18:18:02.960Z,98872.13
2022-12-03T18:20:31.491Z,98867.25
2022-12-03T18:23:00.306Z,98863.81
2022-12-03T18:25:29.710Z,98863.84
2022-12-03T18:27:58.195Z,98859.25
2022-12-03T18:30:26.750Z,98862.97
2022-12-03T18:32:56.457Z,98866.44
2022-12-03T18:35:25.021Z,98854.97
2022-12-03T18:37:53.138Z,98860.16
2022-12-03T18:40:24.297Z,98856.81
2022-12-03T18:42:52.453Z,98855.91
2022-12-03T18:45:21.116Z,98862.31
2022-12-03T18:47:49.375Z,98861.88
2022-12-03T18:50:19.358Z,98851.75
2022-12-03T18:52:47.457Z,98857.25
2022-12-03T18:55:19.240Z,98851.00
2022-12-03T18:57:47.421Z,98858.78
2022-12-03T19:00:16.685Z,98850.94
2022-12-03T19:05:36.184Z,98850.00
2022-12-03T19:08:12.592Z,98853.50
2022-12-03T19:10:42.287Z,98860.69
2022-12-03T19:13:10.626Z,98861.38
2022-12-03T19:15:39.051Z,98857.81
2022-12-03T19:18:07.653Z,98855.91
2022-12-03T19:20:41.178Z,98864.63
2022-12-03T19:23:10.117Z,98850.47
2022-12-03T19:25:38.631Z,98858.41
2022-12-03T19:28:06.897Z,98861.81
2022-12-03T19:30:35.430Z,98857.81
2022-12-03T19:33:03.583Z,98856.44
2022-12-03T19:35:32.745Z,98866.97
2022-12-03T19:38:02.616Z,98875.38
2022-12-03T19:40:32.191Z,98857.38
2022-12-03T19:43:00.512Z,98864.66
2022-12-03T19:45:28.977Z,98865.16
2022-12-03T19:47:57.194Z,98871.50
2022-12-03T19:50:25.780Z,98860.50
2022-12-03T19:52:54.029Z,98863.34
2022-12-03T19:55:24.038Z,98873.72
2022-12-03T19:57:52.432Z,98874.03
2022-12-03T20:00:21.240Z,98861.53
2022-12-03T20:02:50.720Z,98864.22
2022-12-03T20:05:19.321Z,98861.72
2022-12-03T20:07:47.746Z,98859.97
2022-12-03T20:10:16.488Z,98866.22
2022-12-03T20:12:46.099Z,98873.22
2022-12-03T20:15:14.961Z,98860.03
2022-12-03T20:17:43.192Z,98861.88
2022-12-03T20:20:12.286Z,98857.47
2022-12-03T20:22:40.536Z,98857.88
2022-12-03T20:25:09.621Z,98855.00
2022-12-03T20:27:39.976Z,98867.56
2022-12-03T20:30:11.428Z,98864.63
2022-12-03T20:32:45.068Z,98853.06
2022-12-03T20:35:13.821Z,98857.25
2022-12-03T20:37:42.078Z,98855.09
2022-12-03T20:40:11.394Z,98850.06
2022-12-03T20:42:39.480Z,98853.91
2022-12-03T20:45:10.644Z,98846.75
2022-12-03T20:47:38.794Z,98840.53
2022-12-03T20:50:08.503Z,98857.56
2022-12-03T20:52:36.702Z,98852.81
2022-12-03T20:55:05.680Z,98846.16
2022-12-03T20:57:33.823Z,98857.28
2022-12-03T21:00:02.280Z,98846.66
2022-12-03T21:02:31.820Z,98854.19
2022-12-03T21:05:00.392Z,98860.75
2022-12-03T21:07:29.195Z,98853.06
2022-12-03T21:09:57.804Z,98858.88
2022-12-03T21:12:26.189Z,98856.44
2022-12-03T21:14:54.798Z,98858.31
2022-12-03T21:17:23.004Z,98860.53
2022-12-03T21:19:53.313Z,98851.56
2022-12-03T21:22:21.507Z,98869.94
2022-12-03T21:24:49.951Z,98863.59
2022-12-03T21:27:21.642Z,98853.38
2022-12-03T21:29:50.559Z,98857.50
2022-12-03T21:32:18.747Z,98859.06
2022-12-03T21:34:47.301Z,98868.16
2022-12-03T21:37:16.730Z,98862.78
2022-12-03T21:39:45.301Z,98862.03
2022-12-03T21:42:34.312Z,98860.44
2022-12-03T21:45:01.972Z,98862.84
2022-12-03T21:47:36.701Z,98868.22
2022-12-03T21:50:07.160Z,98861.91
2022-12-03T21:52:37.161Z,98854.59
2022-12-03T21:55:06.408Z,98857.25
2022-12-03T21:57:36.394Z,98858.44
2022-12-03T22:00:06.097Z,98860.63
2022-12-03T22:02:34.568Z,98855.91
2022-12-03T22:05:03.154Z,98849.06
2022-12-03T22:07:33.916Z,98852.00
2022-12-03T22:10:04.228Z,98850.47
2022-12-03T22:12:32.652Z,98851.31
2022-12-03T22:15:00.996Z,98852.59
2022-12-03T22:17:29.149Z,98848.69
2022-12-03T22:19:57.680Z,98845.94
2022-12-03T22:22:26.846Z,98842.38
2022-12-03T22:24:55.264Z,98835.91
2022-12-03T22:27:25.183Z,98841.44
2022-12-03T22:29:53.996Z,98839.34
2022-12-03T22:32:22.236Z,98843.72
2022-12-03T22:34:50.769Z,98849.56
2022-12-03T22:37:18.893Z,98834.94
2022-12-03T22:39:47.333Z,98832.88
2022-12-03T22:42:15.494Z,98835.41
2022-12-03T22:44:45.311Z,98835.75
2022-12-03T22:47:13.418Z,98833.16
2022-12-03T22:49:41.819Z,98829.72
2022-12-03T22:52:12.916Z,98834.41
2022-12-03T22:54:41.218Z,98828.19
2022-12-03T22:57:09.395Z,98827.41
2022-12-03T22:59:37.842Z,98825.94
2022-12-03T23:02:07.400Z,98831.72
2022-12-03T23:04:36.085Z,98824.75
2022-12-03T23:07:04.163Z,98829.63
2022-12-03T23:09:32.492Z,98826.28
2022-12-03T23:12:00.687Z,98825.13
2022-12-03T23:14:29.457Z,98811.03
2022-12-03T23:16:57.547Z,98807.19
2022-12-03T23:19:27.238Z,98808.94
2022-12-03T23:21:55.324Z,98815.53
2022-12-03T23:24:23.628Z,98814.41
2022-12-03T23:26:51.876Z,98813.28
2022-12-03T23:29:20.371Z,98813.13
2022-12-03T23:31:48.532Z,98813.91
2022-12-03T23:34:17.018Z,98803.50
2022-12-03T23:36:46.645Z,98811.31
2022-12-03T23:39:15.040Z,98804.03
2022-12-03T23:41:43.184Z,98804.13
2022-12-03T23:44:11.711Z,98802.06
2022-12-03T23:46:40.304Z,98800.28
2022-12-03T23:49:09.064Z,98796.22
2022-12-03T23:51:37.217Z,98797.44
2022-12-03T23:54:07.311Z,98795.19
2022-12-03T23:56:35.420Z,98799.16
2022-12-03T23:59:03.768Z,98801.03
